Tiempo atmosférico en la estación meteorológica de Tenerife Sur Aeropuerto, Santa Cruz de Tenerife (64 m.)



Fecha
DESCASC
Temp. máxima en grados centígrados (hora)
DESCASC
Temp. mínima en grados centígrados (hora)
DESCASC
Temp. media en grados centígrados
DESCASC
Racha de viento máxima en m/sg (hora)
DESCASC
Velocidad máxima media en intervalos de 10 minutos(hora)
DESCASC
Precipitaciones diarias en mm
DESCASC
Precipitaciones de 00:00 a 06:00 en mm
DESCASC
Precipitaciones de 06:00 a 12:00 en mm
DESCASC
Precipitaciones de 12:00 a 18:00 en mm
DESCASC
Precipitaciones de 18:00 a 24:00 en mm
DESCASC
16-01-2020 21.9 (12:00) 12.2 (05:10) 17 8.33 (13:10) 5.83 (13:20) 0 0 0 0 0
15-01-2020 21.7 (13:50) 12.8 (07:10) 17.3 10.83 (06:50) 4.44 (02:30) 0 0 0 0 0
14-01-2020 22.4 (13:50) 14.4 (00:30) 18.4 8.89 (21:00) 4.72 (16:20) 0 0 0 0 0
13-01-2020 23.2 (13:00) 14.6 (23:50) 18.9 12.78 (06:20) 9.17 (06:20) 0 0 0 0 0
12-01-2020 21.5 (12:30) 14.2 (03:10) 17.8 16.39 (12:10) 11.67 (12:10) 0 0 0 0 0
11-01-2020 21.9 (11:50) 15.3 (00:00) 18.6 13.89 (15:30) 10.56 (15:50) 0 0 0 0 0
10-01-2020 22.3 (12:50) 14.8 (00:00) 18.5 18.89 (11:20) 13.33 (11:50) 0 0 0 0 0
09-01-2020 -- (--) -- (--) -- 16.94 (13:10) 11.67 (16:30) -- 0 -- 0 0
08-01-2020 22 (14:40) 13.7 (00:00) 17.8 16.39 (13:10) 12.5 (15:00) 0 0 0 0 0
07-01-2020 21.8 (13:30) 15.9 (00:00) 18.8 15.28 (01:40) 11.39 (01:40) 0.2 0 0.2 0 0
06-01-2020 22.3 (15:20) 14.5 (00:00) 18.4 14.44 (14:40) 11.11 (14:40) 0 0 0 0 0
05-01-2020 22.2 (13:30) 15.6 (00:00) 18.9 13.89 (10:10) 9.72 (13:40) 0 0 0 0 0
04-01-2020 21.6 (12:50) 15.4 (00:00) 18.5 13.89 (10:50) 10.28 (10:00) 0 0 0 0 0
03-01-2020 21.6 (13:10) 15.6 (00:00) 18.6 14.44 (19:20) 10.28 (19:20) 0 0 0 0 0
02-01-2020 21 (13:00) 15.4 (00:00) 18.2 13.89 (20:40) 10.56 (20:50) 0 0 0 0 0
01-01-2020 22.2 (12:20) 15.5 (00:00) 18.9 10.83 (14:00) 8.33 (14:10) 0 0 0 0 0
31-12-2019 23.1 (13:20) 13.6 (00:00) 18.4 12.5 (10:00) 9.17 (10:00) 0 0 0 0 0
30-12-2019 27.2 (11:00) 15.8 (00:00) 21.5 11.67 (19:20) 8.89 (19:20) 0 0 0 0 0
29-12-2019 27 (13:00) 16.1 (00:00) 21.6 9.72 (06:20) 7.22 (05:30) 0 0 0 0 0
28-12-2019 27.1 (13:50) 16.6 (00:00) 21.9 9.72 (10:30) 7.5 (11:00) 0 0 0 0 0
27-12-2019 28 (14:20) 16.6 (00:00) 22.3 10.83 (15:50) 8.06 (16:00) 0 0 0 0 0
26-12-2019 27 (14:40) 17.9 (00:00) 22.4 16.11 (11:20) 12.22 (11:30) 0 0 0 0 0
25-12-2019 28.9 (11:30) 17.5 (00:00) 23.2 12.78 (23:40) 10 (23:40) 0 0 0 0 0
24-12-2019 29.2 (11:20) 15.7 (00:10) 22.5 7.78 (01:20) 5.28 (02:50) 0 0 0 0 0
23-12-2019 24.1 (14:00) 16.6 (00:00) 20.4 16.39 (00:20) 12.22 (00:20) 0 0 0 0 0
22-12-2019 25.1 (14:10) 17.7 (00:20) 21.4 18.61 (23:20) 13.33 (23:20) 0 0 0 0 0
21-12-2019 22.6 (15:10) 13.7 (05:20) 18.2 8.33 (19:40) 3.89 (15:10) 0 0 0 0 0
20-12-2019 22.7 (12:30) 14.2 (00:00) 18.5 7.22 (21:00) 3.89 (00:20) 0 0 0 0 0

Gráficas

Temp. máximas Temp. mínimas Temp. medias Precipitaciones Rachas de viento máximas Velocidades máximas media en intervalos de 10 minutos

Datos horarios

Fecha y hora oficial Temperatura (ºC) Velocidad del viento (km/h) Dirección del viento Racha (km/h) Dirección de racha Precipitación (mm) Presión (hPa) Tendencia (hPa) Humedad (%)
2020-01-18 23:00:00 18.9 31 Nordeste 46 Nordeste 0 1018.2 0 25
2020-01-18 22:00:00 19.2 35 Nordeste 48 Nordeste 0 1018.2 -0.2 23
2020-01-18 21:00:00 19 29 Nordeste 41 Nordeste 0 1018.3 0.5 26
2020-01-18 20:00:00 18.7 28 Nordeste 39 Nordeste 0 1018.2 0.4 40
2020-01-18 19:00:00 18.6 24 Nordeste 45 Nordeste 0 1018.4 0.3 59
2020-01-18 18:00:00 20.5 35 Nordeste 46 Nordeste 0 1017.8 -0.8 51
2020-01-18 17:00:00 22.7 25 Este 35 Nordeste 0 1017.8 -1.2 45
2020-01-18 16:00:00 23 26 Nordeste 39 Este 0 1018.1 -2.2 44
2020-01-18 15:00:00 22.5 24 Este 35 Este 0 1018.6 -2.5 44
2020-01-18 14:00:00 22.5 28 Este 39 Este 0 1019 -2.6 42
2020-01-18 13:00:00 23.4 24 Este 33 Este 0 1020.3 -1.5 36
2020-01-18 12:00:00 23.3 20 Este 33 Este 0 1021.1 0.1 33
2020-01-18 11:00:00 22 28 Nordeste 37 Nordeste 0 1021.6 1.3 41
2020-01-18 10:00:00 20.2 28 Nordeste 37 Nordeste 0 1021.8 2.4 53
2020-01-18 09:00:00 17.6 24 Nordeste 33 Nordeste 0 1021 1.9 51
2020-01-18 08:00:00 16 23 Nordeste 33 Nordeste 0 1020.3 1.5 43
2020-01-18 07:00:00 15.6 20 Nordeste 28 Nordeste 0 1019.4 0.6 38
2020-01-18 06:00:00 16.2 21 Este 35 Este 0 1019.1 -0.1 29
2020-01-18 05:00:00 16.9 22 Nordeste 45 Nordeste 0 1018.8 -0.7 35
2020-01-18 04:00:00 16 36 Nordeste 46 Nordeste 0 1018.8 -1.3 65
2020-01-18 03:00:00 15.7 23 Nordeste 37 Nordeste 0 1019.2 -1.3 60
2020-01-18 02:00:00 15.8 27 Nordeste 41 Nordeste 0 1019.5 -0.9 65
2020-01-18 01:00:00 16.2 25 Nordeste 33 Nordeste 0 1020.1 -0.2 63
2020-01-18 00:00:00 15.6 18 Este 32 Nordeste 0 1020.5 0.6 57
2020-01-17 23:00:00 16.1 21 Nordeste 28 Nordeste 0 1020.4 1.1 60
2020-01-17 22:00:00 16.6 15 Nordeste 26 Nordeste 0 1020.3 1.6 50
2020-01-17 21:00:00 16.7 14 Nordeste 30 Este 0 1019.9 1.8 54
2020-01-17 20:00:00 17.8 22 Nordeste 32 Nordeste 0 1019.3 1.1 54
2020-01-17 19:00:00 18.4 18 Nordeste 41 Nordeste 0 1018.7 0.5 43
2020-01-17 18:00:00 20.3 32 Nordeste 41 Nordeste 0 1018.1 -0.7 40
2020-01-17 17:00:00 21.4 28 Nordeste 37 Este 0 1018.2 -1.1 42
2020-01-17 16:00:00 21.9 23 Este 30 Este 0 1018.2 -2.1 44
2020-01-17 15:00:00 21.4 21 Este 33 Este 0 1018.8 -2 48
2020-01-17 14:00:00 22.2 25 Este 33 Este 0 1019.3 -1.9 40
2020-01-17 13:00:00 22.2 26 Este 39 Este 0 1020.3 -0.2 39
2020-01-17 12:00:00 22.5 30 Este 45 Este 0 1020.8 1 27
2020-01-17 11:00:00 21.3 31 Nordeste 45 Nordeste 0 1021.2 1.6 35
2020-01-17 10:00:00 19.8 30 Nordeste 41 Nordeste 0 1020.5 1.3 47
2020-01-17 09:00:00 17.8 32 Nordeste 41 Nordeste 0 1019.8 1.1 52
2020-01-17 08:00:00 15.7 25 Nordeste 33 Nordeste 0 1019.6 1.2 42
2020-01-17 07:00:00 15.5 23 Nordeste 30 Nordeste 0 1019.2 0.8 31
2020-01-17 06:00:00 15.8 20 Nordeste 30 Nordeste 0 1018.7 0.5 31
2020-01-17 05:00:00 16 20 Nordeste 30 Nordeste 0 1018.4 -0.3 33
2020-01-17 04:00:00 15.4 22 Nordeste 30 Nordeste 0 1018.4 -0.5 33
2020-01-17 03:00:00 16.5 24 Nordeste 32 Nordeste 0 1018.2 -1.2 31
2020-01-17 02:00:00 15.2 14 Nordeste 22 Nordeste 0 1018.7 -0.5 30
2020-01-17 01:00:00 15.3 16 Nordeste 26 Nordeste 0 1018.9 0 29
2020-01-17 00:00:00 16.1 15 Nordeste 24 Norte 0 1019.4 0.6 29
2020-01-16 23:00:00 16.5 18 Nordeste 24 Nordeste 0 1019.2 0.9 32
2020-01-16 22:00:00 15.8 14 Nordeste 21 Nordeste 0 1018.9 1.2 47
2020-01-16 21:00:00 15.7 9 Norte 11 Norte 0 1018.8 1.2 63
2020-01-16 20:00:00 17.1 10 Nordeste 18 Este 0 1018.3 0.8 65
2020-01-16 19:00:00 18.5 12 Este 17 Este 0 1017.7 0.5 60
2020-01-16 18:00:00 20 11 Este 17 Este 0 1017.6 0.8 46
2020-01-16 17:00:00 20.7 10 Sudeste 22 Este 0 1017.5 0.6 47
2020-01-16 16:00:00 21.1 12 Sudeste 22 Sudeste 0 1017.2 -0.7 48
2020-01-16 15:00:00 21.4 15 Sudeste 26 Este 0 1016.8 -1.7 48
2020-01-16 14:00:00 21.1 18 Este 30 Sudeste 0 1016.9 -1.6 48
2020-01-16 13:00:00 21.6 19 Este 28 Este 0 1017.9 -0.1 44
2020-01-16 12:00:00 21.7 16 Este 26 Este 0 1018.5 1.2 35
2020-01-16 11:00:00 21.2 16 Este 21 Este 0 1018.5 2 39
2020-01-16 10:00:00 20.1 11 Este 28 Norte 0 1018 2.4 27
2020-01-16 09:00:00 16.6 14 Norte 22 Norte 0 1017.3 2.1 26
2020-01-16 08:00:00 14 14 Nordeste 18 Norte 0 1016.5 1.4 36
2020-01-16 07:00:00 14 13 Norte 17 Norte 0 1015.6 0.4 29
2020-01-16 06:00:00 13.3 13 Norte 15 Norte 0 1015.2 0.3 30
2020-01-16 05:00:00 12.6 10 Norte 11 Norte 0 1015.1 0.1 31
2020-01-16 04:00:00 13.4 9 Norte 17 Norte 0 1015.2 -0.3 30
2020-01-16 03:00:00 14.7 13 Norte 18 Nordeste 0 1014.9 -0.6 29
2020-01-16 02:00:00 15.3 14 Norte 21 Norte 0 1015 -0.5 33
2020-01-16 01:00:00 15.2 17 Norte 21 Norte 0 1015.5 0.2 30
2020-01-16 00:00:00 15.9 13 Norte 21 Norte 0 1015.5 0.5 30
2020-01-15 23:00:00 16.5 13 Norte 21 Nordeste 0 1015.5 1 30
2020-01-15 22:00:00 16.6 14 Norte 22 Nordeste 0 1015.3 1.3 33
2020-01-15 21:00:00 16.4 14 Norte 17 Norte 0 1015 1.6 51
2020-01-15 20:00:00 16.8 11 Nordeste 13 Nordeste 0 1014.5 1.1 51
2020-01-15 19:00:00 18 9 Sudeste 15 Sudeste 0 1014 0.7 49
2020-01-15 18:00:00 19.6 12 Sudeste 18 Sudeste 0 1013.4 0 46
2020-01-15 17:00:00 20.5 13 Sudeste 21 Sudeste 0 1013.4 -0.2 51
2020-01-15 16:00:00 21.2 13 Sudeste 22 Este 0 1013.3 -0.6 49
2020-01-15 15:00:00 21.3 13 Sudeste 24 Sudeste 0 1013.4 -1.6 47
2020-01-15 14:00:00 21.6 14 Sudeste 24 Sudeste 0 1013.6 -1.5 39
2020-01-15 13:00:00 21.2 13 Sudeste 22 Este 0 1013.9 -0.7 40
2020-01-15 12:00:00 21 12 Este 24 Sudeste 0 1015 0.6 40
2020-01-15 11:00:00 20.6 12 Este 21 Este 0 1015.1 1.1 41
2020-01-15 10:00:00 19.8 10 Este 32 Norte 0 1014.6 1.3 39
2020-01-15 09:00:00 16.4 11 Norte 21 Nordeste 0 1014.4 1.9 33
2020-01-15 08:00:00 13.5 12 Norte 17 Norte 0 1014 1.5 32
2020-01-15 07:00:00 13.3 9 Norte 39 Nordeste 0 1013.3 0.5 32
2020-01-15 06:00:00 14.1 10 Norte 15 Norte 0 1012.5 -0.2 31
2020-01-15 05:00:00 13.9 10 Norte 17 Norte 0 1012.5 -0.7 31
2020-01-15 04:00:00 14.9 9 Norte 21 Norte 0 1012.8 -0.9 29
2020-01-15 03:00:00 14.8 14 Norte 22 Norte 0 1012.7 -0.9 30
2020-01-15 02:00:00 14.9 13 Norte 17 Norte 0 1013.2 -0.2 40
2020-01-15 01:00:00 14.4 14 Norte 18 Norte 0 1013.7 0.7 57
2020-01-15 00:00:00 14.8 14 Norte 17 Norte 0 1013.6 1.2 57
2020-01-14 23:00:00 15 12 Nordeste 17 Norte 0 1013.4 1.3 56
2020-01-14 22:00:00 15.7 12 Norte 18 Nordeste 0 1013 1.1 58
2020-01-14 21:00:00 16.3 12 Nordeste 32 Norte 0 1012.4 0.6 58
2020-01-14 20:00:00 16.9 12 Nordeste 13 Nordeste 0 1012.1 0.1 55
2020-01-14 19:00:00 17.6 8 Sudeste 15 Sudeste 0 1011.9 0.3 54
2020-01-14 18:00:00 19.5 10 Sudeste 26 Sur 0 1011.8 0.2 48
2020-01-14 17:00:00 20.5 17 Sudeste 26 Sudeste 0 1012 -0.1 54
2020-01-14 16:00:00 21.3 14 Sudeste 22 Sudeste 0 1011.6 -1.3 44
2020-01-14 15:00:00 21.9 10 Sudeste 21 Este 0 1011.6 -2.3 44
2020-01-14 14:00:00 21.8 11 Este 24 Sur 0 1012.1 -2.2 47
2020-01-14 13:00:00 22 13 Sudeste 24 Sudeste 0 1012.9 -0.6 47
2020-01-14 12:00:00 21.4 10 Sur 21 Sudeste 0 1013.9 0.8 48
2020-01-14 11:00:00 21.1 15 Sudeste 22 Sudeste 0 1014.3 1.6 54
2020-01-14 10:00:00 20.2 9 Este 18 Nordeste 0 1013.5 1.5 58
2020-01-14 09:00:00 17.5 12 Norte 17 Norte 0 1013.1 2 50
2020-01-14 08:00:00 14.9 11 Nordeste 15 Norte 0 1012.7 1.9 52
2020-01-14 07:00:00 15.8 12 Nordeste 17 Nordeste 0 1012 0.6 41
2020-01-14 06:00:00 15.4 14 Nordeste 21 Nordeste 0 1011.1 -0.5 30
2020-01-14 05:00:00 15.2 13 Nordeste 18 Norte 0 1010.8 -1.1 32
2020-01-14 04:00:00 15.2 15 Nordeste 17 Nordeste 0 1011.4 -0.9 44
2020-01-14 03:00:00 15.1 9 Norte 18 Norte 0 1011.6 -1.4 29
2020-01-14 02:00:00 16.1 14 Norte 21 Norte 0 1011.9 -1.6 30
2020-01-14 01:00:00 15.6 13 Norte 30 Norte 0 1012.3 -1.5 38
2020-01-14 00:00:00 15 13 Norte 15 Norte 0 1013 -0.7 48
2020-01-13 23:00:00 15.8 12 Norte 26 Norte 0 1013.5 0.2 59
2020-01-13 22:00:00 16.1 12 Norte 15 Nordeste 0 1013.8 0.8 62
2020-01-13 21:00:00 16.6 13 Nordeste 15 Nordeste 0 1013.7 1.1 68
2020-01-13 20:00:00 17.1 12 Nordeste 18 Este 0 1013.3 0.8 68
2020-01-13 19:00:00 18.4 11 Nordeste 18 Este 0 1013 0.5 65
2020-01-13 18:00:00 19.6 13 Este 21 Sudeste 0 1012.6 0 63
2020-01-13 17:00:00 20.4 12 Este 22 Este 0 1012.5 -0.8 61
2020-01-13 16:00:00 21 13 Este 24 Sudeste 0 1012.5 -1.3 64
2020-01-13 15:00:00 21.3 17 Sudeste 32 Este 0 1012.6 -2 59
2020-01-13 14:00:00 22 18 Este 30 Este 0 1013.3 -1.7 49
2020-01-13 13:00:00 22.9 16 Este 30 Este 0 1013.8 -0.9 40
2020-01-13 12:00:00 22.1 24 Este 32 Este 0 1014.6 -0.3 54
2020-01-13 11:00:00 21.5 23 Este 33 Este 0 1015 0.8 54
2020-01-13 10:00:00 19.5 28 Nordeste 35 Nordeste 0 1014.7 1.1 61
2020-01-13 09:00:00 16.7 14 Norte 26 Nordeste 0 1014.9 1.7 58
2020-01-13 08:00:00 16.3 17 Norte 39 Nordeste 0 1014.2 1.1 60
2020-01-13 07:00:00 16.5 27 Nordeste 46 Nordeste 0 1013.6 0.1 58
2020-01-13 06:00:00 16.3 28 Nordeste 37 Nordeste 0 1013.2 -1.2 65
2020-01-13 05:00:00 15.8 26 Nordeste 39 Nordeste 0 1013.1 -1.2 62
2020-01-13 04:00:00 15.8 21 Nordeste 28 Nordeste 0 1013.5 -1.1 61
2020-01-13 03:00:00 16.4 14 Nordeste 39 Norte 0 1014.4 -0.3 44
2020-01-13 02:00:00 16.5 24 Nordeste 37 Nordeste 0 1014.3 -0.9 56
2020-01-13 01:00:00 16.4 22 Nordeste 45 Nordeste 0 1014.6 -0.8 50
2020-01-13 00:00:00 16.6 30 Nordeste 41 Nordeste 0 1014.7 -0.7 66
2020-01-12 23:00:00 16.5 23 Nordeste 30 Nordeste 0 1015.2 0.2 66
2020-01-12 22:00:00 16.6 14 Este 30 Nordeste 0 1015.4 0.1 62
2020-01-12 21:00:00 17.5 19 Nordeste 39 Nordeste 0 1015.4 0 65
2020-01-12 20:00:00 17.8 28 Este 42 Nordeste 0 1015 0.2 60
2020-01-12 19:00:00 18.4 23 Este 33 Nordeste 0 1015.3 0.9 58
2020-01-12 18:00:00 19 23 Este 42 Este 0 1015.4 0.9 66
2020-01-12 17:00:00 19.7 26 Nordeste 37 Nordeste 0 1014.8 0.3 54
2020-01-12 16:00:00 20.1 25 Este 42 Este 0 1014.4 -0.8 50
2020-01-12 15:00:00 20.9 26 Este 46 Este 0 1014.5 -2 53
2020-01-12 14:00:00 21.3 33 Este 54 Este 0 1014.5 -2.6 49
2020-01-12 13:00:00 21.3 37 Este 59 Este 0 1015.2 -1.8 52
2020-01-12 12:00:00 21.2 40 Este 52 Este 0 1016.5 -0.4 51
2020-01-12 11:00:00 19.6 37 Nordeste 48 Este 0 1017.1 0.9 52
2020-01-12 10:00:00 19.7 32 Este 52 Este 0 1017 1.9 49
2020-01-12 09:00:00 17.7 19 Nordeste 39 Este 0 1016.9 2.3 66
2020-01-12 08:00:00 16.5 14 Nordeste 35 Nordeste 0 1016.2 1.4 64
2020-01-12 07:00:00 15.6 12 Norte 32 Nordeste 0 1015.1 -0.8 60
2020-01-12 06:00:00 16.1 13 Nordeste 37 Nordeste 0 1014.6 -1.9 62
2020-01-12 05:00:00 16.2 22 Nordeste 33 Nordeste 0 1014.8 -1.7 56
2020-01-12 04:00:00 16.8 18 Nordeste 32 Nordeste 0 1015.9 -0.8 55
2020-01-12 03:00:00 15 8 Norte 17 Norte 0 1016.5 -1 62
2020-01-12 02:00:00 16 9 Norte 30 Norte 0 1016.5 -1 63
2020-01-12 01:00:00 17.1 19 Nordeste 30 Nordeste 0 1016.7 -0.3 63
2020-01-12 00:00:00 17.1 10 Nordeste 30 Nordeste 0 1017.5 0.7 60
2020-01-11 23:00:00 17.5 26 Nordeste 39 Este 0 1017.5 1.2 62
2020-01-11 22:00:00 17.4 24 Nordeste 35 Este 0 1017 1.1 60
2020-01-11 21:00:00 17.7 32 Este 45 Este 0 1016.8 0.9 61
2020-01-11 20:00:00 18.3 35 Nordeste 50 Nordeste 0 1016.3 0.8 55
2020-01-11 19:00:00 18.4 27 Este 41 Este 0 1015.9 0.5 62
2020-01-11 18:00:00 18.5 30 Nordeste 42 Nordeste 0 1015.9 0.1 67
2020-01-11 17:00:00 19.7 32 Este 46 Este 0 1015.5 -0.8 60
2020-01-11 16:00:00 21 31 Este 50 Este 0 1015.4 -1.7 48
2020-01-11 15:00:00 20.3 32 Este 48 Nordeste 0 1015.8 -2.4 56
2020-01-11 14:00:00 20.8 31 Este 46 Este 0 1016.3 -2.7 55
2020-01-11 13:00:00 21.6 29 Este 45 Este 0 1017.1 -1.4 51
2020-01-11 12:00:00 21.5 28 Este 46 Nordeste 0 1018.2 0.2 47
2020-01-11 11:00:00 20.2 27 Este 41 Este 0 1019 1.5 51
2020-01-11 10:00:00 18.8 22 Nordeste 33 Nordeste 0 1018.5 1.5 55
2020-01-11 09:00:00 16.4 17 Nordeste 28 Nordeste 0 1018 1.1 61
2020-01-11 08:00:00 15.4 12 Norte 24 Nordeste 0 1017.5 0.5 66
2020-01-11 07:00:00 15.7 19 Nordeste 28 Norte 0 1017 -0.1 66
2020-01-11 06:00:00 16.2 17 Norte 30 Nordeste 0 1016.9 -0.5 66
2020-01-11 05:00:00 16.5 17 Nordeste 24 Nordeste 0 1017 -0.5 69
2020-01-11 04:00:00 17.4 19 Nordeste 42 Nordeste 0 1017.1 -0.9 70
2020-01-11 03:00:00 17.6 21 Nordeste 35 Nordeste 0 1017.4 -0.9 79
2020-01-11 02:00:00 17.9 30 Nordeste 42 Nordeste 0 1017.5 -1.1 78
2020-01-11 01:00:00 17.9 27 Nordeste 37 Nordeste 0 1018 -1 81
2020-01-11 00:00:00 17.1 15 Nordeste 22 Nordeste 0 1018.3 -0.3 74
2020-01-10 23:00:00 17.9 21 Nordeste 33 Nordeste 0 1018.6 0.3 73
2020-01-10 22:00:00 17.3 13 Norte 37 Nordeste 0 1019 0.8 73
2020-01-10 21:00:00 17.5 14 Nordeste 33 Nordeste 0 1018.6 0.6 68
2020-01-10 20:00:00 18.4 24 Nordeste 35 Nordeste 0 1018.3 0.9 69
2020-01-10 19:00:00 19 26 Nordeste 42 Nordeste 0 1018.2 0.8 65
2020-01-10 18:00:00 19.9 32 Nordeste 58 Nordeste 0 1018 0.4 57
2020-01-10 17:00:00 20.9 41 Nordeste 61 Nordeste 0 1017.4 -0.8 55
2020-01-10 16:00:00 20.8 42 Nordeste 63 Nordeste 0 1017.4 -1.5 58
2020-01-10 15:00:00 21 32 Nordeste 55 Nordeste 0 1017.6 -1.8 64
2020-01-10 14:00:00 21.1 36 Nordeste 55 Nordeste 0 1018.2 -1.9 60
2020-01-10 13:00:00 21.7 39 Este 55 Nordeste 0 1018.9 -0.8 64
2020-01-10 12:00:00 21.7 41 Este 68 Este 0 1019.4 0.1 60
2020-01-10 11:00:00 21.1 35 Este 59 Este 0 1020.1 1.4 64
2020-01-10 10:00:00 19.4 33 Nordeste 50 Nordeste 0 1019.7 1.5 66
2020-01-10 09:00:00 18.7 15 Nordeste 37 Nordeste 0 1019.3 1.3 73
2020-01-10 08:00:00 17.3 24 Nordeste 45 Nordeste 0 1018.7 0.3 79
2020-01-10 07:00:00 15.6 13 Norte 18 Norte 0 1018.2 -0.5 67
2020-01-10 06:00:00 15.9 10 Norte 28 Nordeste 0 1018 -0.9 65
2020-01-10 05:00:00 17.2 21 Nordeste 33 Nordeste 0 1018.4 -0.7 69
2020-01-10 04:00:00 17.8 24 Nordeste 39 Nordeste 0 1018.7 -0.6 69
2020-01-10 03:00:00 17.3 20 Norte 42 Nordeste 0 1018.9 -0.7 72
2020-01-10 02:00:00 17.6 18 Nordeste 33 Nordeste 0 1019.1 -1 56
2020-01-10 01:00:00 16.8 12 Nordeste 37 Nordeste 0 1019.3 -0.4 58
2020-01-10 00:00:00 17.7 26 Nordeste 50 Nordeste 0 1019.6 -0.1 58
2020-01-09 23:00:00 17.8 35 Nordeste 55 Nordeste 0 1020.1 0.6 57
2020-01-09 22:00:00 18.1 41 Nordeste 58 Nordeste 0 1019.7 0.8 57
2020-01-09 21:00:00 18.2 37 Nordeste 52 Nordeste 0 1019.7 1.2 56
2020-01-09 20:00:00 18.1 26 Nordeste 39 Nordeste 0 1019.5 1.1 55
2020-01-09 19:00:00 18.5 25 Nordeste 54 Nordeste 0 1018.9 0.9 54
2020-01-09 18:00:00 19.5 38 Nordeste 59 Nordeste 0 1018.5 0.3 53
2020-01-09 17:00:00 20.5 36 Este 58 Nordeste 0 1018.4 -0.2 53
2020-01-09 16:00:00 21.3 37 Este 54 Este 0 1018 -1.4 49
2020-01-09 15:00:00 21.6 39 Este 61 Nordeste 0 1018.2 -2.1 48
2020-01-09 14:00:00 21.8 39 Este 61 Este 0 1018.6 -2 46
2020-01-09 13:00:00 22 35 Este 50 Este 0 1019.4 -0.7 45
2020-01-09 12:00:00 21.7 33 Este 48 Este 0 1020.3 0.9 45
2020-01-09 11:00:00 21.1 29 Este 42 Este -- 1020.6 1.9 46
2020-01-09 10:00:00 -- 29 Nordeste 42 Este -- 1020.1 1.7 57
2020-01-09 09:00:00 17.5 15 Nordeste 28 Norte 0 1019.4 1.2 55
2020-01-09 08:00:00 15.9 18 Norte 30 Nordeste 0 1018.7 0.4 69
2020-01-09 07:00:00 16.2 17 Norte 24 Norte 0 1018.4 0.1 66
2020-01-09 06:00:00 16.1 19 Norte 33 Nordeste 0 1018.2 -0.3 66
2020-01-09 05:00:00 15.7 17 Nordeste 30 Nordeste 0 1018.3 -0.4 64
2020-01-09 04:00:00 15.9 22 Norte 35 Nordeste 0 1018.3 -0.7 57
2020-01-09 03:00:00 16.4 26 Norte 48 Nordeste 0 1018.5 -0.8 59
2020-01-09 02:00:00 16.3 20 Nordeste 28 Nordeste 0 1018.7 -0.7 61
2020-01-09 01:00:00 16.4 16 Norte 26 Norte 0 1019 -0.3 56
2020-01-09 00:00:00 16.5 17 Nordeste 26 Nordeste 0 1019.3 -0.1 56
2020-01-08 23:00:00 16.4 17 Nordeste 30 Norte 0 1019.4 0.4 54
2020-01-08 22:00:00 16.7 19 Norte 30 Nordeste 0 1019.3 0.8 56
2020-01-08 21:00:00 17.4 22 Nordeste 35 Nordeste 0 1019.4 1 59
2020-01-08 20:00:00 17.6 23 Nordeste 37 Este 0 1019 1.2 63
2020-01-08 19:00:00 18.1 25 Nordeste 41 Nordeste 0 1018.5 1.1 62
2020-01-08 18:00:00 19 25 Nordeste 48 Nordeste 0 1018.4 1.1 60
2020-01-08 17:00:00 19.4 32 Nordeste 52 Este 0 1017.8 0.2 57
2020-01-08 16:00:00 20.6 39 Este 58 Nordeste 0 1017.4 -1.1 53
2020-01-08 15:00:00 21.2 45 Este 55 Este 0 1017.3 -2 54
2020-01-08 14:00:00 21.6 40 Este 59 Este 0 1017.6 -2.3 52
2020-01-08 13:00:00 21.6 35 Este 54 Este 0 1018.5 -1.1 52
2020-01-08 12:00:00 21.2 37 Este 52 Este 0 1019.3 0.6 49
2020-01-08 11:00:00 20.6 36 Este 55 Este 0 1019.9 1.8 55
2020-01-08 10:00:00 18.4 28 Nordeste 39 Nordeste 0 1019.6 2.1 63
2020-01-08 09:00:00 17.2 22 Nordeste 41 Este 0 1018.7 1.5 70
2020-01-08 08:00:00 16.9 27 Este 37 Este 0 1018.1 0.8 69
2020-01-08 07:00:00 16.3 20 Nordeste 33 Nordeste 0 1017.5 0.1 63
2020-01-08 06:00:00 16.7 26 Nordeste 35 Nordeste 0 1017.2 -0.3 62
2020-01-08 05:00:00 16.6 27 Nordeste 42 Este 0 1017.3 -0.4 61
2020-01-08 04:00:00 17.3 27 Este 39 Este 0 1017.4 -0.7 52
2020-01-08 03:00:00 16.3 24 Nordeste 33 Este 0 1017.5 -1.2 57
2020-01-08 02:00:00 14.4 11 Nordeste 15 Nordeste 0 1017.7 -1.1 69
2020-01-08 01:00:00 14.6 7 Nordeste 17 Nordeste 0 1018.1 -0.5 66
2020-01-08 00:00:00 16.4 15 Nordeste 26 Nordeste 0 1018.7 0.5 62
2020-01-07 23:00:00 16.5 15 Nordeste 26 Nordeste 0 1018.8 0.9 62
2020-01-07 22:00:00 16 18 Nordeste 24 Nordeste 0 1018.6 1.1 54
2020-01-07 21:00:00 16.2 17 Nordeste 26 Norte 0 1018.2 1.5 62
2020-01-07 20:00:00 17.3 18 Norte 33 Nordeste 0 1017.9 1.5 62
2020-01-07 19:00:00 18.2 24 Nordeste 48 Este 0 1017.5 1.2 60
2020-01-07 18:00:00 19.3 37 Nordeste 48 Nordeste 0 1016.7 0.4 59
2020-01-07 17:00:00 20.2 39 Este 52 Nordeste 0 1016.4 -0.4 55
2020-01-07 16:00:00 21.2 36 Este 55 Este 0 1016.3 -1.2 49
2020-01-07 15:00:00 21.3 37 Este 52 Este 0 1016.3 -2 49
2020-01-07 14:00:00 21.4 33 Este 54 Este 0 1016.8 -1.8 54
2020-01-07 13:00:00 21.2 32 Este 50 Nordeste 0 1017.5 -0.8 54
2020-01-07 12:00:00 21.1 37 Este 54 Este 0 1018.3 0.9 51
2020-01-07 11:00:00 20.2 38 Nordeste 52 Este 0 1018.6 2.1 55
2020-01-07 10:00:00 18.9 35 Este 48 Este 0 1018.3 2.9 58
2020-01-07 09:00:00 16.4 23 Nordeste 48 Este 0.2 1017.4 2.3 78
2020-01-07 08:00:00 17.9 34 Nordeste 46 Nordeste 0 1016.5 1.6 60
2020-01-07 07:00:00 17.7 30 Nordeste 46 Nordeste 0 1015.4 0.8 51
2020-01-07 06:00:00 16.7 22 Nordeste 52 Nordeste 0 1015.1 0.3 52
2020-01-07 05:00:00 17.4 32 Nordeste 52 Este 0 1014.9 -0.3 44
2020-01-07 04:00:00 17.6 36 Nordeste 55 Este 0 1014.6 -0.9 52
2020-01-07 03:00:00 17.7 31 Este 50 Este 0 1014.8 -1.6 57
2020-01-07 02:00:00 17.8 39 Nordeste 55 Este 0 1015.2 -1.4 62
2020-01-07 01:00:00 17.5 25 Este 41 Este 0 1015.5 -0.7 55
2020-01-07 00:00:00 17.4 31 Nordeste 48 Nordeste 0 1016.4 0.4 64
2020-01-06 23:00:00 16.6 13 Norte 32 Norte 0 1016.6 1 59
2020-01-06 22:00:00 18.2 14 Nordeste 41 Nordeste 0 1016.2 0.8 64
2020-01-06 21:00:00 17.7 16 Noroeste 24 Noroeste 0 1016 0.7 56
2020-01-06 20:00:00 18.8 11 Oeste 21 Noroeste 0 1015.6 0.4 53
2020-01-06 19:00:00 19.5 5 Sudoeste 24 Norte 0 1015.4 0.3 49
2020-01-06 18:00:00 21 8 Noroeste 33 Norte 0 1015.3 0.1 46
2020-01-06 17:00:00 20.7 32 Este 52 Este 0 1015.2 -0.6 50
2020-01-06 16:00:00 21.6 35 Este 50 Este 0 1015.1 -1.7 47
2020-01-06 15:00:00 21.8 35 Este 52 Este 0 1015.2 -2.5 46
2020-01-06 14:00:00 21.7 36 Este 50 Este 0 1015.8 -2.9 49
2020-01-06 13:00:00 22 36 Este 50 Este 0 1016.8 -1.8 43
2020-01-06 12:00:00 21.2 35 Este 48 Este 0 1017.7 -0.1 49
2020-01-06 11:00:00 20.1 28 Este 42 Nordeste 0 1018.7 1.2 54
2020-01-06 10:00:00 19 18 Nordeste 42 Nordeste 0 1018.6 1.1 58
2020-01-06 09:00:00 17.6 22 Nordeste 33 Nordeste 0 1017.8 0.4 59